Main page
METAR-TAF:

METAR-TAF

Airports :

Scatsta, Shetland, Scotland

Scatsta Airport

latitude: 60-26N, longitude: 001-18W, elevation: 22 m

Current weather observation

The report was made 19 minutes ago, at 01:50 UTC
Wind 12 kt from the Northeast
Temperature 9°C
Humidity 81%
Pressure 1009 hPa
Visibility 10 km or more

METAR: EGPM 290150Z AUTO 04012KT 9999 BKN018/// 09/06 Q1009

Time: 03:09 (02:09 UTC)

Forecast

The report was made 9 hours and 9 minutes ago, at 17:00 UTC
Forecast valid from 28 at 18 UTC to 28 at 20 UTC
Wind 12 kt from the East/Northeast
Visibility 10 km or more
Scattered clouds at a height of 3000 ft

TAF: EGPM 281700Z 2818/2820 07012KT 9999 SCT030

Weather observations and forecasts of more than 4000 airports (METAR and TAF reports).

The available stations are represented by yellow and red dots on the map.

Hover mouse over dot to see the name of the station.

Then click to see weather observations and forecasts.

To change the map : click on the green buttons with a black cross to zoom in, on the green button with a dash to zoom out, or on the green arrows for adjacent maps.


METAR-TAF: